createdAt,value
2018-03-17T00:02:48.032Z,4.30
2018-03-17T00:08:16.205Z,4.73
2018-03-17T00:13:44.341Z,4.90
2018-03-17T00:19:15.171Z,4.30
2018-03-17T00:24:43.310Z,5.50
2018-03-17T00:30:11.442Z,4.90
2018-03-17T00:35:40.592Z,4.50
2018-03-17T00:41:09.495Z,4.70
2018-03-17T00:46:37.644Z,4.77
2018-03-17T00:52:07.536Z,4.70
2018-03-17T00:57:35.686Z,4.30
2018-03-17T01:03:03.823Z,5.17
2018-03-17T01:08:31.971Z,5.90
2018-03-17T01:14:00.129Z,5.03
2018-03-17T01:19:28.558Z,4.80
2018-03-17T01:24:56.690Z,5.30
2018-03-17T01:30:25.900Z,5.50
2018-03-17T01:35:54.068Z,5.00
2018-03-17T01:41:22.272Z,5.10
2018-03-17T01:46:50.398Z,5.20
2018-03-17T01:52:31.990Z,4.90
2018-03-17T01:58:01.110Z,4.57
2018-03-17T02:03:30.031Z,5.17
2018-03-17T02:08:58.318Z,4.07
2018-03-17T02:14:26.515Z,4.43
2018-03-17T02:19:54.688Z,4.10
2018-03-17T02:25:22.881Z,4.70
2018-03-17T02:30:51.018Z,3.77
2018-03-17T02:36:19.170Z,4.30
2018-03-17T02:41:47.296Z,4.17
2018-03-17T02:47:15.420Z,4.63
2018-03-17T02:52:44.330Z,4.90
2018-03-17T02:58:12.504Z,4.63
2018-03-17T03:03:40.662Z,4.63
2018-03-17T03:09:12.818Z,4.43
2018-03-17T03:14:41.705Z,4.37
2018-03-17T03:20:10.781Z,4.23
2018-03-17T03:25:38.987Z,4.80
2018-03-17T03:31:07.120Z,4.47
2018-03-17T03:36:36.010Z,4.57
2018-03-17T03:42:06.142Z,4.40
2018-03-17T03:47:35.059Z,3.60
2018-03-17T03:53:03.208Z,4.47
2018-03-17T03:58:31.348Z,5.33
2018-03-17T04:03:59.498Z,4.60
2018-03-17T04:09:31.833Z,4.43
2018-03-17T04:14:59.988Z,4.63
2018-03-17T04:20:29.143Z,4.13
2018-03-17T04:25:57.359Z,3.83
2018-03-17T04:31:25.572Z,3.97
2018-03-17T04:36:54.500Z,3.90
2018-03-17T04:42:22.686Z,4.37
2018-03-17T04:47:51.534Z,4.70
2018-03-17T04:53:31.502Z,4.20
2018-03-17T04:58:59.639Z,3.97
2018-03-17T05:04:27.794Z,4.40
2018-03-17T05:09:55.957Z,4.57
2018-03-17T05:15:24.083Z,4.50
2018-03-17T05:20:52.218Z,4.53
2018-03-17T05:26:20.351Z,3.83
2018-03-17T05:31:49.254Z,4.80
2018-03-17T05:37:18.399Z,4.90
2018-03-17T05:42:47.352Z,4.30
2018-03-17T05:48:15.486Z,4.70
2018-03-17T05:53:45.547Z,5.23
2018-03-17T05:59:13.678Z,5.17
2018-03-17T06:04:41.835Z,4.10
2018-03-17T06:10:11.040Z,5.30
2018-03-17T06:15:40.665Z,4.90
2018-03-17T06:21:08.827Z,5.20
2018-03-17T06:26:38.861Z,5.23
2018-03-17T06:32:08.958Z,5.30
2018-03-17T06:37:37.115Z,6.33
2018-03-17T06:43:11.908Z,6.00
2018-03-17T06:48:40.081Z,5.43
2018-03-17T06:54:08.325Z,5.77
2018-03-17T06:59:36.473Z,7.50
2018-03-17T07:05:04.617Z,7.40
2018-03-17T07:10:33.552Z,9.03
2018-03-17T07:16:01.707Z,8.03
2018-03-17T07:21:29.864Z,9.07
2018-03-17T07:26:58.036Z,8.27
2018-03-17T07:32:26.991Z,8.43
2018-03-17T07:37:56.291Z,11.30
2018-03-17T07:43:24.471Z,12.30
2018-03-17T07:48:52.696Z,14.70
2018-03-17T07:54:22.169Z,17.37
2018-03-17T07:59:50.334Z,18.27
2018-03-17T08:05:18.478Z,18.40
2018-03-17T08:10:47.575Z,21.03
2018-03-17T08:16:16.522Z,23.50
2018-03-17T08:21:45.439Z,24.47
2018-03-17T08:27:13.592Z,26.83
2018-03-17T08:32:43.756Z,26.80
2018-03-17T08:38:11.910Z,27.03
2018-03-17T08:43:40.436Z,28.50
2018-03-17T08:49:08.600Z,27.87
2018-03-17T08:54:37.536Z,23.90
2018-03-17T09:00:06.691Z,25.77
2018-03-17T09:05:35.608Z,25.90
2018-03-17T09:11:04.045Z,23.97
2018-03-17T09:16:32.187Z,24.60
2018-03-17T09:22:02.035Z,22.40
2018-03-17T09:27:32.899Z,26.00
2018-03-17T09:33:01.090Z,21.73
2018-03-17T09:38:29.262Z,22.03
2018-03-17T09:43:57.453Z,21.80
2018-03-17T09:49:25.727Z,19.67
2018-03-17T09:54:53.952Z,20.27
2018-03-17T10:00:22.914Z,18.00
2018-03-17T10:05:52.115Z,16.43
2018-03-17T10:11:20.313Z,18.93
2018-03-17T10:16:50.209Z,17.63
2018-03-17T10:22:18.482Z,21.30
2018-03-17T10:27:47.420Z,18.23
2018-03-17T10:33:16.720Z,16.93
2018-03-17T10:38:44.862Z,17.93
2018-03-17T10:44:13.218Z,21.33
2018-03-17T10:49:42.301Z,23.33
2018-03-17T10:55:10.517Z,25.83
2018-03-17T11:00:44.277Z,23.53
2018-03-17T11:06:12.644Z,25.93
2018-03-17T11:11:41.610Z,28.63
2018-03-17T11:17:12.015Z,26.83
2018-03-17T11:22:40.404Z,30.17
2018-03-17T11:28:09.370Z,27.77
2018-03-17T11:33:38.308Z,29.43
2018-03-17T11:39:06.514Z,30.00
2018-03-17T11:44:35.421Z,28.17
2018-03-17T11:50:03.577Z,26.67
2018-03-17T11:55:32.556Z,22.90
2018-03-17T12:01:00.734Z,21.30
2018-03-17T12:06:29.732Z,19.90
2018-03-17T12:11:57.920Z,19.93
2018-03-17T12:17:26.373Z,21.13
2018-03-17T12:22:54.641Z,21.93
2018-03-17T12:28:23.825Z,19.40
2018-03-17T12:33:53.178Z,18.73
2018-03-17T12:39:21.368Z,21.13
2018-03-17T12:44:50.315Z,21.50
2018-03-17T12:50:18.491Z,22.53
2018-03-17T12:55:46.708Z,22.63
2018-03-17T13:01:15.804Z,24.30
2018-03-17T13:06:43.942Z,22.00
2018-03-17T13:12:13.051Z,24.37
2018-03-17T13:17:41.983Z,23.70
2018-03-17T13:23:16.256Z,28.07
2018-03-17T13:28:45.396Z,25.03
2018-03-17T13:34:13.538Z,23.57
2018-03-17T13:39:42.451Z,21.67
2018-03-17T13:45:11.370Z,22.33
2018-03-17T13:50:40.374Z,20.47
2018-03-17T13:56:08.757Z,19.90
2018-03-17T14:01:37.081Z,18.30
2018-03-17T14:07:05.257Z,16.97
2018-03-17T14:12:34.333Z,20.50
2018-03-17T14:18:03.234Z,19.80
2018-03-17T14:23:32.182Z,20.10
2018-03-17T14:29:00.381Z,18.80
2018-03-17T14:34:28.591Z,19.40
2018-03-17T14:39:58.346Z,19.87
2018-03-17T14:45:26.563Z,17.60
2018-03-17T14:50:55.888Z,17.60
2018-03-17T14:56:24.161Z,18.10
2018-03-17T15:01:53.366Z,17.93
2018-03-17T15:07:21.626Z,17.43
2018-03-17T15:12:50.793Z,16.10
2018-03-17T15:18:19.793Z,15.00
2018-03-17T15:23:48.030Z,15.30
2018-03-17T15:29:17.230Z,17.47
2018-03-17T15:34:46.110Z,16.53
2018-03-17T15:40:16.369Z,15.50
2018-03-17T15:45:44.489Z,16.90
2018-03-17T15:51:12.695Z,16.90
2018-03-17T15:56:40.925Z,17.63
2018-03-17T16:02:09.107Z,16.10
2018-03-17T16:07:37.277Z,16.50
2018-03-17T16:13:05.500Z,16.93
2018-03-17T16:18:33.601Z,17.00
2018-03-17T16:24:01.792Z,17.73
2018-03-17T16:29:30.049Z,16.70
2018-03-17T16:35:00.365Z,17.03
2018-03-17T16:40:32.316Z,16.80
2018-03-17T16:46:00.719Z,16.27
2018-03-17T16:51:29.056Z,16.90
2018-03-17T16:56:57.970Z,17.20
2018-03-17T17:02:28.345Z,15.33
2018-03-17T17:07:56.564Z,16.43
2018-03-17T17:13:25.528Z,19.17
2018-03-17T17:18:53.769Z,19.80
2018-03-17T17:24:22.935Z,20.07
2018-03-17T17:29:55.027Z,16.67
2018-03-17T17:35:23.245Z,15.60
2018-03-17T17:40:51.975Z,18.87
2018-03-17T17:46:24.814Z,17.30
2018-03-17T17:51:53.149Z,19.30
2018-03-17T17:57:23.306Z,18.97
2018-03-17T18:02:54.785Z,17.77
2018-03-17T18:08:23.042Z,16.20
2018-03-17T18:13:52.527Z,16.90
2018-03-17T18:19:25.912Z,16.43
2018-03-17T18:24:56.054Z,15.83
2018-03-17T18:30:27.194Z,15.73
2018-03-17T18:36:03.175Z,14.67
2018-03-17T18:41:31.757Z,16.53
2018-03-17T18:47:00.709Z,13.87
2018-03-17T18:52:29.884Z,14.43
2018-03-17T18:58:03.422Z,16.40
2018-03-17T19:03:31.952Z,15.97
2018-03-17T19:09:01.090Z,16.50
2018-03-17T19:14:29.368Z,15.43
2018-03-17T19:19:58.308Z,14.57
2018-03-17T19:25:27.329Z,16.30
2018-03-17T19:30:55.508Z,16.80
2018-03-17T19:36:24.892Z,13.07
2018-03-17T19:41:54.990Z,15.33
2018-03-17T19:47:23.158Z,14.33
2018-03-17T19:52:51.337Z,15.60
2018-03-17T19:58:21.795Z,15.03
2018-03-17T20:03:50.120Z,15.93
2018-03-17T20:09:19.134Z,16.80
2018-03-17T20:15:07.157Z,16.80
2018-03-17T20:20:39.443Z,15.87
2018-03-17T20:26:07.736Z,18.27
2018-03-17T20:31:36.187Z,17.17
2018-03-17T20:37:04.327Z,16.40
2018-03-17T20:42:34.556Z,14.30
2018-03-17T20:48:02.737Z,18.40
2018-03-17T20:53:31.814Z,16.33
2018-03-17T20:59:01.180Z,17.20
2018-03-17T21:04:30.998Z,16.93
2018-03-17T21:09:59.296Z,14.97
2018-03-17T21:15:29.181Z,16.60
2018-03-17T21:20:57.368Z,17.47
2018-03-17T21:26:27.557Z,17.50
2018-03-17T21:31:55.825Z,18.17
2018-03-17T21:37:24.950Z,16.37
2018-03-17T21:42:55.096Z,20.50
2018-03-17T21:48:24.605Z,18.80
2018-03-17T21:53:52.878Z,19.10
2018-03-17T21:59:21.270Z,20.37
2018-03-17T22:04:50.179Z,19.67
2018-03-17T22:10:18.349Z,21.40
2018-03-17T22:15:46.511Z,20.53
2018-03-17T22:21:15.644Z,19.20
2018-03-17T22:26:44.752Z,21.10
2018-03-17T22:32:13.156Z,21.57
2018-03-17T22:37:41.537Z,18.70
2018-03-17T22:43:09.960Z,21.37
2018-03-17T22:48:40.162Z,19.77
2018-03-17T22:54:09.177Z,16.63
2018-03-17T22:59:38.325Z,18.33
2018-03-17T23:05:06.482Z,19.20
2018-03-17T23:10:35.522Z,18.70
2018-03-17T23:16:09.986Z,17.63
2018-03-17T23:21:43.154Z,19.70
2018-03-17T23:27:11.368Z,19.60
2018-03-17T23:32:39.520Z,19.90
2018-03-17T23:38:07.696Z,19.53
2018-03-17T23:43:38.111Z,26.70
2018-03-17T23:49:06.439Z,18.53
2018-03-17T23:54:34.733Z,19.90
